Time;durP1;ratioP1;P1;durP2;ratioP2;P2;SDS_P1;SDS_P2;PMS_P1;PMS_P2;Temp;Humidity;BMP_temperature;BMP_pressure;BME280_temperature;BME280_humidity;BME280_pressure;Samples;Min_cycle;Max_cycle;Signal;HPM_P1;HPM_P2
2022/10/20 00:02:27;;;;;;;;;;;5.50;99.90;;;;;;5129273;27;1657;-55
2022/10/20 00:05:06;;;;;;;;;;;5.40;99.90;;;;;;5128847;27;1278;-55
2022/10/20 00:07:44;;;;;;;;;;;5.50;99.90;;;;;;5111029;27;1745;-55
2022/10/20 00:10:22;;;;;;;;;;;5.60;99.90;;;;;;5082081;27;1465;-54
2022/10/20 00:13:00;;;;;;;;;;;5.40;99.90;;;;;;5086141;27;2033;-53
2022/10/20 00:15:39;;;;;;;;;;;5.40;99.90;;;;;;5127998;27;1320;-54
2022/10/20 00:18:17;;;;;;;;;;;5.30;99.90;;;;;;5087851;27;1608;-54
2022/10/20 00:20:55;;;;;;;;;;;5.20;99.90;;;;;;5110578;27;1497;-55
2022/10/20 00:23:33;;;;;;;;;;;5.10;99.90;;;;;;5128962;27;1781;-53
2022/10/20 00:26:13;;;;;;;;;;;5.10;99.90;;;;;;5127737;27;1338;-54
2022/10/20 00:28:52;;;;;;;;;;;5.10;99.90;;;;;;5123663;27;2176;-54
2022/10/20 00:31:30;;;;;;;;;;;5.10;99.90;;;;;;5090037;27;1446;-55
2022/10/20 00:34:08;;;;;;;;;;;5.00;99.90;;;;;;5091312;27;1268;-53
2022/10/20 00:36:46;;;;;;;;;;;5.00;99.90;;;;;;5073865;27;1467;-53
2022/10/20 00:39:24;;;;;;;;;;;5.00;99.90;;;;;;5126662;27;1392;-53
2022/10/20 00:42:03;;;;;;;;;;;4.80;99.90;;;;;;5105513;27;1419;-53
2022/10/20 00:44:49;;;;;;;;;;;4.80;99.90;;;;;;5129082;27;1339;-53
2022/10/20 00:47:37;;;;;;;;;;;4.90;99.90;;;;;;5113198;27;1657;-53
2022/10/20 00:50:17;;;;;;;;;;;4.90;99.90;;;;;;5112245;27;1353;-54
2022/10/20 00:52:55;;;;;;;;;;;4.80;99.90;;;;;;5128718;27;1275;-54
2022/10/20 00:55:34;;;;;;;;;;;4.80;99.90;;;;;;5128950;27;1471;-54
2022/10/20 00:58:12;;;;;;;;;;;4.80;99.90;;;;;;5111349;27;1546;-53
2022/10/20 01:00:50;;;;;;;;;;;5.00;99.90;;;;;;5073712;27;1800;-53
2022/10/20 01:03:29;;;;;;;;;;;5.00;99.90;;;;;;5117332;27;1573;-55
2022/10/20 01:06:08;;;;;;;;;;;5.00;99.90;;;;;;5128767;27;1364;-53
2022/10/20 01:08:46;;;;;;;;;;;5.10;99.90;;;;;;5105937;27;2382;-53
2022/10/20 01:11:31;;;;;;;;;;;4.90;99.90;;;;;;5113754;27;1540;-53
2022/10/20 01:14:21;;;;;;;;;;;4.90;99.90;;;;;;5128678;27;1279;-54
2022/10/20 01:17:05;;;;;;;;;;;4.80;99.90;;;;;;5121028;27;1371;-53
2022/10/20 01:19:53;;;;;;;;;;;4.80;99.90;;;;;;5117356;27;1410;-53
2022/10/20 01:22:37;;;;;;;;;;;4.90;99.90;;;;;;5128725;27;1331;-53
2022/10/20 01:25:18;;;;;;;;;;;5.00;99.90;;;;;;5129487;27;1300;-53
2022/10/20 01:27:58;;;;;;;;;;;4.90;99.90;;;;;;5113721;27;1299;-54
2022/10/20 01:30:38;;;;;;;;;;;4.90;99.90;;;;;;5128966;27;1723;-55
2022/10/20 01:33:19;;;;;;;;;;;4.90;99.90;;;;;;5129099;27;1324;-53
2022/10/20 01:36:00;;;;;;;;;;;4.90;99.90;;;;;;5088734;27;1582;-53
2022/10/20 01:38:40;;;;;;;;;;;4.90;99.90;;;;;;5107619;27;1654;-55
2022/10/20 01:41:20;;;;;;;;;;;4.90;99.90;;;;;;5112134;27;1661;-53
2022/10/20 01:43:57;;;;;;;;;;;4.80;99.90;;;;;;5129273;27;1582;-54
2022/10/20 01:46:36;;;;;;;;;;;4.70;99.90;;;;;;5122007;27;1662;-54
2022/10/20 01:49:14;;;;;;;;;;;4.80;99.90;;;;;;5129139;27;1656;-53
2022/10/20 01:51:52;;;;;;;;;;;4.80;99.90;;;;;;5135715;27;1467;-53
2022/10/20 01:54:30;;;;;;;;;;;4.80;99.90;;;;;;5090639;27;1375;-54
2022/10/20 01:57:12;;;;;;;;;;;4.80;99.90;;;;;;5135008;27;1714;-53
2022/10/20 01:59:57;;;;;;;;;;;4.80;99.90;;;;;;5100961;27;1520;-53
2022/10/20 02:02:41;;;;;;;;;;;4.90;99.90;;;;;;5089271;27;1642;-53
2022/10/20 02:05:33;;;;;;;;;;;4.90;99.90;;;;;;5128494;27;1373;-53
2022/10/20 02:08:16;;;;;;;;;;;4.80;99.90;;;;;;5110502;27;1385;-56
2022/10/20 02:10:55;;;;;;;;;;;4.90;99.90;;;;;;5127875;27;1578;-53
2022/10/20 02:13:35;;;;;;;;;;;5.00;99.90;;;;;;5128717;27;1292;-52
2022/10/20 02:16:14;;;;;;;;;;;5.00;99.90;;;;;;5128476;27;1477;-53
2022/10/20 02:18:52;;;;;;;;;;;4.90;99.90;;;;;;5127687;27;1439;-54
2022/10/20 02:21:31;;;;;;;;;;;4.90;99.90;;;;;;5128521;27;1352;-53
2022/10/20 02:24:09;;;;;;;;;;;4.80;99.90;;;;;;5090561;27;1352;-54
2022/10/20 02:26:47;;;;;;;;;;;4.80;99.90;;;;;;5116927;27;1627;-54
2022/10/20 02:29:28;;;;;;;;;;;4.80;99.90;;;;;;5126486;27;1335;-56
2022/10/20 02:32:06;;;;;;;;;;;4.50;99.90;;;;;;5127548;27;1428;-54
2022/10/20 02:34:43;;;;;;;;;;;4.40;99.90;;;;;;5125643;27;1628;-54
2022/10/20 02:37:21;;;;;;;;;;;4.40;99.90;;;;;;5117013;27;1837;-56
2022/10/20 02:40:00;;;;;;;;;;;4.50;99.90;;;;;;5088729;27;1354;-53
2022/10/20 02:42:39;;;;;;;;;;;4.50;99.90;;;;;;5128895;27;1248;-53
2022/10/20 02:45:16;;;;;;;;;;;4.60;99.90;;;;;;5149400;27;1290;-54
2022/10/20 02:47:54;;;;;;;;;;;4.50;99.90;;;;;;5088937;27;1799;-55
2022/10/20 02:50:33;;;;;;;;;;;4.50;99.90;;;;;;5119861;27;1343;-55
2022/10/20 02:53:11;;;;;;;;;;;4.30;99.90;;;;;;5127778;27;1315;-53
2022/10/20 02:55:49;;;;;;;;;;;4.10;99.90;;;;;;5090571;27;2936;-52
2022/10/20 02:58:27;;;;;;;;;;;4.00;99.90;;;;;;5070424;27;1415;-53
2022/10/20 03:01:06;;;;;;;;;;;4.00;99.90;;;;;;5128196;27;1541;-54
2022/10/20 03:03:44;;;;;;;;;;;4.00;99.90;;;;;;5129430;27;1713;-54
2022/10/20 03:06:22;;;;;;;;;;;4.10;99.90;;;;;;5126649;27;1793;-52
2022/10/20 03:09:00;;;;;;;;;;;4.20;99.90;;;;;;5121340;27;1934;-54
2022/10/20 03:11:38;;;;;;;;;;;4.40;99.90;;;;;;5127162;27;1660;-52
2022/10/20 03:14:17;;;;;;;;;;;4.30;99.90;;;;;;5128629;27;1284;-55
2022/10/20 03:16:55;;;;;;;;;;;4.20;99.90;;;;;;5121455;27;1526;-54
2022/10/20 03:19:33;;;;;;;;;;;4.10;99.90;;;;;;5128611;27;1351;-53
2022/10/20 03:22:11;;;;;;;;;;;4.10;99.90;;;;;;5087396;27;1781;-52
2022/10/20 03:24:50;;;;;;;;;;;4.00;99.90;;;;;;5108731;27;1643;-53
2022/10/20 03:27:28;;;;;;;;;;;3.90;99.90;;;;;;5072842;27;1383;-54
2022/10/20 03:30:07;;;;;;;;;;;3.80;99.90;;;;;;5125851;27;1660;-55
2022/10/20 03:32:44;;;;;;;;;;;3.80;99.90;;;;;;5120858;27;1311;-55
2022/10/20 03:35:23;;;;;;;;;;;3.70;99.90;;;;;;5128805;27;1774;-54
2022/10/20 03:38:01;;;;;;;;;;;3.90;99.90;;;;;;5124378;27;1733;-52
2022/10/20 03:40:39;;;;;;;;;;;4.00;99.90;;;;;;5121821;27;2009;-54
2022/10/20 03:43:17;;;;;;;;;;;3.80;99.90;;;;;;5090560;27;1660;-52
2022/10/20 03:46:03;;;;;;;;;;;3.70;99.90;;;;;;5111405;27;2255;-54
2022/10/20 03:48:40;;;;;;;;;;;3.70;99.90;;;;;;5127902;27;1343;-54
2022/10/20 03:51:18;;;;;;;;;;;3.70;99.90;;;;;;5112255;27;1487;-53
2022/10/20 03:53:57;;;;;;;;;;;3.70;99.90;;;;;;5091750;27;1313;-52
2022/10/20 03:56:35;;;;;;;;;;;3.70;99.90;;;;;;5078786;27;1757;-53
2022/10/20 03:59:13;;;;;;;;;;;3.70;99.90;;;;;;5126202;27;1756;-52
2022/10/20 04:01:51;;;;;;;;;;;3.70;99.90;;;;;;5127219;27;1339;-54
2022/10/20 04:04:29;;;;;;;;;;;3.70;99.90;;;;;;5090049;27;1291;-53
2022/10/20 04:07:08;;;;;;;;;;;3.70;99.90;;;;;;5113453;27;2036;-54
2022/10/20 04:09:46;;;;;;;;;;;3.80;99.90;;;;;;5103182;27;1795;-52
2022/10/20 04:12:25;;;;;;;;;;;3.70;99.90;;;;;;5110857;27;1635;-52
2022/10/20 04:15:02;;;;;;;;;;;3.70;99.90;;;;;;5139518;27;1566;-53
2022/10/20 04:17:41;;;;;;;;;;;3.70;99.90;;;;;;5106450;27;1663;-52
2022/10/20 04:20:19;;;;;;;;;;;3.70;99.90;;;;;;5104876;27;1776;-53
2022/10/20 04:22:57;;;;;;;;;;;3.60;99.90;;;;;;5114162;27;1365;-53
2022/10/20 04:25:35;;;;;;;;;;;3.70;99.90;;;;;;5117255;27;1296;-52
2022/10/20 04:28:13;;;;;;;;;;;3.70;99.90;;;;;;5129282;27;1423;-53
2022/10/20 04:30:52;;;;;;;;;;;3.70;99.90;;;;;;5111400;27;1636;-53
2022/10/20 04:33:30;;;;;;;;;;;3.80;99.90;;;;;;5108552;27;1667;-52
2022/10/20 04:36:12;;;;;;;;;;;3.70;99.90;;;;;;5101706;27;1384;-53
2022/10/20 04:38:50;;;;;;;;;;;3.70;99.90;;;;;;5104606;27;1448;-53
2022/10/20 04:41:28;;;;;;;;;;;3.70;99.90;;;;;;5117344;27;1477;-53
2022/10/20 04:44:06;;;;;;;;;;;3.70;99.90;;;;;;5119740;27;1313;-53
2022/10/20 04:46:44;;;;;;;;;;;3.70;99.90;;;;;;5062844;27;1622;-52
2022/10/20 04:49:23;;;;;;;;;;;3.70;99.90;;;;;;5108922;27;1862;-53
2022/10/20 04:52:01;;;;;;;;;;;3.70;99.90;;;;;;5126566;27;1507;-54
2022/10/20 04:54:39;;;;;;;;;;;3.70;99.90;;;;;;5128077;27;1331;-53
2022/10/20 04:57:17;;;;;;;;;;;3.70;99.90;;;;;;5070050;27;1588;-53
2022/10/20 04:59:55;;;;;;;;;;;3.70;99.90;;;;;;5123452;27;1397;-52
2022/10/20 05:02:34;;;;;;;;;;;3.70;99.90;;;;;;5126241;27;1327;-55
2022/10/20 05:05:12;;;;;;;;;;;3.70;99.90;;;;;;5127044;27;1440;-55
2022/10/20 05:07:50;;;;;;;;;;;3.60;99.90;;;;;;5111596;27;1536;-53
2022/10/20 05:10:28;;;;;;;;;;;3.70;99.90;;;;;;5125685;27;1332;-53
2022/10/20 05:13:07;;;;;;;;;;;3.70;99.90;;;;;;5127754;27;1335;-55
2022/10/20 05:15:45;;;;;;;;;;;3.80;99.90;;;;;;5115664;27;1765;-53
2022/10/20 05:18:23;;;;;;;;;;;3.80;99.90;;;;;;5106847;27;1342;-54
2022/10/20 05:21:04;;;;;;;;;;;3.90;99.90;;;;;;5126857;27;1336;-53
2022/10/20 05:23:42;;;;;;;;;;;3.90;99.90;;;;;;5116151;27;1687;-53
2022/10/20 05:26:19;;;;;;;;;;;3.80;99.90;;;;;;5123311;27;1719;-54
2022/10/20 05:28:58;;;;;;;;;;;3.80;99.90;;;;;;5111793;27;1667;-53
2022/10/20 05:31:37;;;;;;;;;;;3.80;99.90;;;;;;5125833;27;1354;-54
2022/10/20 05:34:16;;;;;;;;;;;3.80;99.90;;;;;;5111552;27;1771;-53
2022/10/20 05:36:54;;;;;;;;;;;3.80;99.90;;;;;;5119589;27;1291;-54
2022/10/20 05:39:32;;;;;;;;;;;3.80;99.90;;;;;;5123391;27;1290;-53
2022/10/20 05:42:10;;;;;;;;;;;3.90;99.90;;;;;;5127830;27;1336;-53
2022/10/20 05:44:48;;;;;;;;;;;4.00;99.90;;;;;;5127361;27;1533;-53
2022/10/20 05:47:27;;;;;;;;;;;4.00;99.90;;;;;;5109126;27;1601;-53
2022/10/20 05:50:05;;;;;;;;;;;4.00;99.90;;;;;;5122470;27;1314;-53
2022/10/20 05:52:43;;;;;;;;;;;3.80;99.90;;;;;;5080150;27;1325;-55
2022/10/20 05:55:21;;;;;;;;;;;3.80;99.90;;;;;;5128400;27;1760;-53
2022/10/20 05:58:00;;;;;;;;;;;3.80;99.90;;;;;;5112677;27;1597;-54
2022/10/20 06:00:40;;;;;;;;;;;3.80;99.90;;;;;;5128383;27;1302;-52
2022/10/20 06:03:18;;;;;;;;;;;3.90;99.90;;;;;;5126414;27;1676;-53
2022/10/20 06:05:58;;;;;;;;;;;3.90;99.90;;;;;;5119740;27;1682;-53
2022/10/20 06:08:36;;;;;;;;;;;3.90;99.90;;;;;;5106163;27;1588;-53
2022/10/20 06:11:15;;;;;;;;;;;3.90;99.90;;;;;;5114201;27;1302;-53
2022/10/20 06:13:52;;;;;;;;;;;3.90;99.90;;;;;;5123384;27;1701;-53
2022/10/20 06:16:31;;;;;;;;;;;3.90;99.90;;;;;;5122230;27;1702;-52
2022/10/20 06:19:09;;;;;;;;;;;3.90;99.90;;;;;;5119709;27;1682;-53
2022/10/20 06:21:47;;;;;;;;;;;4.00;99.90;;;;;;5126275;27;1343;-53
2022/10/20 06:24:25;;;;;;;;;;;4.10;99.90;;;;;;5113611;27;1461;-53
2022/10/20 06:27:03;;;;;;;;;;;4.20;99.90;;;;;;5113519;27;1645;-53
2022/10/20 06:29:42;;;;;;;;;;;4.20;99.90;;;;;;5117909;27;1347;-53
2022/10/20 06:32:20;;;;;;;;;;;4.30;99.90;;;;;;5127053;27;1809;-53
2022/10/20 06:34:58;;;;;;;;;;;4.40;99.90;;;;;;5128280;27;1320;-53
2022/10/20 06:37:36;;;;;;;;;;;4.50;99.90;;;;;;5123141;27;1402;-53
2022/10/20 06:40:14;;;;;;;;;;;4.50;99.90;;;;;;5124713;27;1363;-53
2022/10/20 06:42:53;;;;;;;;;;;4.60;99.90;;;;;;5132574;27;1312;-53
2022/10/20 06:45:31;;;;;;;;;;;4.60;99.90;;;;;;5127920;27;1394;-53
2022/10/20 06:48:09;;;;;;;;;;;4.70;99.90;;;;;;5092524;27;1771;-53
2022/10/20 06:50:47;;;;;;;;;;;4.80;99.90;;;;;;5088901;27;1346;-55
2022/10/20 06:53:26;;;;;;;;;;;4.80;99.90;;;;;;5115038;27;2115;-53
2022/10/20 06:56:06;;;;;;;;;;;5.00;99.90;;;;;;5107045;27;2126;-55
2022/10/20 06:58:44;;;;;;;;;;;5.20;99.90;;;;;;5113587;27;1763;-53
2022/10/20 07:01:23;;;;;;;;;;;5.30;99.90;;;;;;5127041;27;1739;-54
2022/10/20 07:04:01;;;;;;;;;;;5.30;99.90;;;;;;5128459;27;1595;-54
2022/10/20 07:06:40;;;;;;;;;;;5.30;99.90;;;;;;5123191;27;1652;-55
2022/10/20 07:09:17;;;;;;;;;;;5.30;99.90;;;;;;5125679;27;1343;-54
2022/10/20 07:11:55;;;;;;;;;;;5.30;99.90;;;;;;5120821;27;2006;-53
2022/10/20 07:14:36;;;;;;;;;;;5.40;99.90;;;;;;5124208;27;1652;-54
2022/10/20 07:17:13;;;;;;;;;;;5.40;99.90;;;;;;5116248;27;1761;-55
2022/10/20 07:19:51;;;;;;;;;;;5.40;99.90;;;;;;5128037;27;1697;-54
2022/10/20 07:22:29;;;;;;;;;;;5.30;99.90;;;;;;5128981;27;1339;-54
2022/10/20 07:25:08;;;;;;;;;;;5.30;99.90;;;;;;5128166;27;1414;-54
2022/10/20 07:27:46;;;;;;;;;;;5.30;99.90;;;;;;5099412;27;2041;-55
2022/10/20 07:30:24;;;;;;;;;;;5.50;99.90;;;;;;5082638;27;1592;-56
2022/10/20 07:33:02;;;;;;;;;;;5.80;99.90;;;;;;5127850;27;1778;-53
2022/10/20 07:35:40;;;;;;;;;;;5.90;99.90;;;;;;5128487;27;1290;-54
2022/10/20 07:38:19;;;;;;;;;;;6.10;99.90;;;;;;5111085;27;1319;-53
2022/10/20 07:41:02;;;;;;;;;;;6.20;99.90;;;;;;5119693;27;1694;-53
2022/10/20 07:43:40;;;;;;;;;;;6.30;99.90;;;;;;5128432;27;1476;-53
2022/10/20 07:46:18;;;;;;;;;;;6.40;99.90;;;;;;5105996;27;1946;-53
2022/10/20 07:48:56;;;;;;;;;;;6.60;99.90;;;;;;5128688;27;1483;-53
2022/10/20 07:51:35;;;;;;;;;;;6.60;99.90;;;;;;5123551;27;1608;-53
2022/10/20 07:54:13;;;;;;;;;;;6.70;99.90;;;;;;5107464;27;1339;-53
2022/10/20 07:56:51;;;;;;;;;;;6.70;99.90;;;;;;5109741;27;1397;-53
2022/10/20 07:59:30;;;;;;;;;;;6.80;99.90;;;;;;5124102;27;1811;-53
2022/10/20 08:02:09;;;;;;;;;;;6.90;99.90;;;;;;5125899;27;1565;-53
2022/10/20 08:04:47;;;;;;;;;;;6.90;99.90;;;;;;5126142;27;1363;-53
2022/10/20 08:07:26;;;;;;;;;;;7.00;99.90;;;;;;5114954;27;1796;-53
2022/10/20 08:10:04;;;;;;;;;;;7.10;99.90;;;;;;5125093;27;1650;-53
2022/10/20 08:12:42;;;;;;;;;;;7.20;99.90;;;;;;5122453;27;1343;-53
2022/10/20 08:15:20;;;;;;;;;;;7.30;99.90;;;;;;5129516;27;1341;-53
2022/10/20 08:17:58;;;;;;;;;;;7.40;99.90;;;;;;5110951;27;1623;-53
2022/10/20 08:20:37;;;;;;;;;;;7.60;99.90;;;;;;5124675;27;1559;-54
2022/10/20 08:23:15;;;;;;;;;;;7.70;99.90;;;;;;5105717;27;1920;-53
2022/10/20 08:25:56;;;;;;;;;;;7.90;99.90;;;;;;5128552;27;1530;-53
2022/10/20 08:28:33;;;;;;;;;;;8.00;99.90;;;;;;5114768;27;1658;-54
2022/10/20 08:31:11;;;;;;;;;;;8.10;99.90;;;;;;5127349;27;1846;-53
2022/10/20 08:33:49;;;;;;;;;;;8.10;99.90;;;;;;5124633;27;1854;-53
2022/10/20 08:36:28;;;;;;;;;;;8.20;99.90;;;;;;5126841;27;2200;-52
2022/10/20 08:39:06;;;;;;;;;;;8.40;99.90;;;;;;5112129;27;2043;-53
2022/10/20 08:41:45;;;;;;;;;;;8.50;99.90;;;;;;5106719;27;1947;-55
2022/10/20 08:44:24;;;;;;;;;;;8.60;99.90;;;;;;5112775;27;1721;-53
2022/10/20 08:47:03;;;;;;;;;;;8.70;99.90;;;;;;5111846;27;1670;-53
2022/10/20 08:49:40;;;;;;;;;;;8.80;99.90;;;;;;5121149;27;1683;-53
2022/10/20 08:52:21;;;;;;;;;;;8.80;99.90;;;;;;5127836;27;1639;-53
2022/10/20 08:54:59;;;;;;;;;;;8.90;99.90;;;;;;5129006;27;1284;-53
2022/10/20 08:57:37;;;;;;;;;;;9.00;99.90;;;;;;5115287;27;1592;-53
2022/10/20 09:00:17;;;;;;;;;;;9.00;99.90;;;;;;5089656;27;1399;-53
2022/10/20 09:02:55;;;;;;;;;;;9.00;99.90;;;;;;5127143;27;1457;-52
2022/10/20 09:05:34;;;;;;;;;;;9.10;99.90;;;;;;5126887;27;1594;-53
2022/10/20 09:08:11;;;;;;;;;;;9.20;99.90;;;;;;5101227;27;1620;-53
2022/10/20 09:10:51;;;;;;;;;;;9.30;99.90;;;;;;5125011;27;1443;-52
2022/10/20 09:13:30;;;;;;;;;;;9.40;99.90;;;;;;5127171;27;1640;-53
2022/10/20 09:16:11;;;;;;;;;;;9.50;99.90;;;;;;5123338;27;1641;-53
2022/10/20 09:18:52;;;;;;;;;;;9.60;99.90;;;;;;5103173;27;1697;-53
2022/10/20 09:21:31;;;;;;;;;;;9.80;99.90;;;;;;5127242;27;1330;-55
2022/10/20 09:24:09;;;;;;;;;;;9.90;99.90;;;;;;5128766;27;1646;-55
2022/10/20 09:26:48;;;;;;;;;;;9.90;99.90;;;;;;5121910;27;1367;-53
2022/10/20 09:29:36;;;;;;;;;;;10.00;99.90;;;;;;5127522;27;1346;-52
2022/10/20 09:32:18;;;;;;;;;;;10.00;99.90;;;;;;5128450;27;1764;-53
2022/10/20 09:35:11;;;;;;;;;;;10.10;99.90;;;;;;5128862;27;1772;-53
2022/10/20 09:37:51;;;;;;;;;;;10.10;99.90;;;;;;5105994;27;1967;-55
2022/10/20 09:40:29;;;;;;;;;;;10.10;99.90;;;;;;5105611;27;1432;-55
2022/10/20 09:43:10;;;;;;;;;;;10.20;99.90;;;;;;5127901;27;1831;-54
2022/10/20 09:45:51;;;;;;;;;;;10.30;99.90;;;;;;5114752;27;1539;-53
2022/10/20 09:48:31;;;;;;;;;;;10.40;99.90;;;;;;5108257;27;1432;-53
2022/10/20 09:51:13;;;;;;;;;;;10.50;99.90;;;;;;5128590;27;1507;-52
2022/10/20 09:53:53;;;;;;;;;;;10.50;99.90;;;;;;5129775;27;1594;-54
2022/10/20 09:56:32;;;;;;;;;;;10.60;99.90;;;;;;5125472;27;1588;-53
2022/10/20 09:59:18;;;;;;;;;;;10.60;99.90;;;;;;5128513;27;1348;-55
2022/10/20 10:01:58;;;;;;;;;;;10.60;99.90;;;;;;5129566;27;1752;-53
2022/10/20 10:04:36;;;;;;;;;;;10.60;99.90;;;;;;5128593;27;1795;-54
2022/10/20 10:07:29;;;;;;;;;;;10.60;99.90;;;;;;5094781;27;2060;-53
2022/10/20 10:10:08;;;;;;;;;;;10.60;99.90;;;;;;5125158;27;1871;-54
2022/10/20 10:12:52;;;;;;;;;;;10.60;99.90;;;;;;5128805;27;1609;-53
2022/10/20 10:15:32;;;;;;;;;;;10.50;99.90;;;;;;5128416;27;1338;-53
2022/10/20 10:18:14;;;;;;;;;;;10.60;99.90;;;;;;5105776;27;1854;-55
2022/10/20 10:20:58;;;;;;;;;;;10.60;99.90;;;;;;5127825;27;1361;-53
2022/10/20 10:23:39;;;;;;;;;;;10.60;99.90;;;;;;5128206;27;1336;-53
2022/10/20 10:26:34;;;;;;;;;;;10.50;99.90;;;;;;5121727;27;1693;-54
2022/10/20 10:29:19;;;;;;;;;;;10.50;99.90;;;;;;5123257;27;1340;-53
2022/10/20 10:32:00;;;;;;;;;;;10.60;99.90;;;;;;5124820;27;1677;-53
2022/10/20 10:34:58;;;;;;;;;;;10.70;99.90;;;;;;5120458;27;1312;-53
2022/10/20 10:37:36;;;;;;;;;;;10.80;99.90;;;;;;5104037;27;1509;-53
2022/10/20 10:40:15;;;;;;;;;;;10.80;99.90;;;;;;5113434;27;1327;-53
2022/10/20 10:43:00;;;;;;;;;;;10.90;99.90;;;;;;5121655;27;1765;-52
2022/10/20 10:45:44;;;;;;;;;;;11.00;99.90;;;;;;5093004;27;1346;-53
2022/10/20 10:48:35;;;;;;;;;;;11.10;99.90;;;;;;5112376;27;1729;-53
2022/10/20 10:51:17;;;;;;;;;;;11.20;99.90;;;;;;5128433;27;1410;-53
2022/10/20 10:53:59;;;;;;;;;;;11.20;99.90;;;;;;5136886;27;1340;-53
2022/10/20 10:56:41;;;;;;;;;;;11.20;99.90;;;;;;5123738;27;1749;-53
2022/10/20 10:59:21;;;;;;;;;;;11.20;99.90;;;;;;5114314;27;1374;-53
2022/10/20 11:02:17;;;;;;;;;;;11.10;99.90;;;;;;5117223;27;1553;-53
2022/10/20 11:05:15;;;;;;;;;;;11.20;99.90;;;;;;5091319;27;1718;-53
2022/10/20 11:07:57;;;;;;;;;;;11.40;99.90;;;;;;5108759;27;1653;-53
2022/10/20 11:10:38;;;;;;;;;;;11.80;99.90;;;;;;5106851;27;1339;-53
2022/10/20 11:13:22;;;;;;;;;;;12.10;99.90;;;;;;5120893;27;1593;-53
2022/10/20 11:16:09;;;;;;;;;;;12.30;99.90;;;;;;5128702;27;1641;-53
2022/10/20 11:19:15;;;;;;;;;;;12.30;99.90;;;;;;5088649;27;1747;-53
2022/10/20 11:22:00;;;;;;;;;;;12.40;99.90;;;;;;5127120;27;1499;-53
2022/10/20 11:24:43;;;;;;;;;;;12.40;99.90;;;;;;5127540;27;1332;-53
2022/10/20 11:27:24;;;;;;;;;;;12.40;99.90;;;;;;5113383;27;1679;-52
2022/10/20 11:30:07;;;;;;;;;;;12.40;99.90;;;;;;5107895;27;1361;-53
2022/10/20 11:32:47;;;;;;;;;;;12.30;99.90;;;;;;5114771;27;1540;-54
2022/10/20 11:35:31;;;;;;;;;;;12.30;99.90;;;;;;5128915;27;1328;-53
2022/10/20 11:38:14;;;;;;;;;;;12.30;99.90;;;;;;5109261;27;1636;-53
2022/10/20 11:40:54;;;;;;;;;;;12.40;99.90;;;;;;5112352;27;1293;-53
2022/10/20 11:43:34;;;;;;;;;;;12.40;99.90;;;;;;5101591;27;1625;-53
2022/10/20 11:46:13;;;;;;;;;;;12.30;99.90;;;;;;5112003;27;1352;-53
2022/10/20 11:48:52;;;;;;;;;;;12.30;99.90;;;;;;5111677;27;1673;-53
2022/10/20 11:51:38;;;;;;;;;;;12.20;99.90;;;;;;5126233;27;1328;-54
2022/10/20 11:54:24;;;;;;;;;;;12.30;99.90;;;;;;5128356;27;1425;-53
2022/10/20 11:57:10;;;;;;;;;;;12.30;99.90;;;;;;5083558;27;1679;-52
2022/10/20 12:00:05;;;;;;;;;;;12.40;99.90;;;;;;5122789;27;1315;-53
2022/10/20 12:03:08;;;;;;;;;;;12.50;99.90;;;;;;5125480;27;1655;-52
2022/10/20 12:05:59;;;;;;;;;;;12.60;99.90;;;;;;5089204;27;1319;-53
2022/10/20 12:08:45;;;;;;;;;;;12.60;99.90;;;;;;5122526;27;1812;-53
2022/10/20 12:11:26;;;;;;;;;;;12.70;99.90;;;;;;5112032;27;1410;-53
2022/10/20 12:14:07;;;;;;;;;;;12.70;99.90;;;;;;5108145;27;1929;-52
2022/10/20 12:17:03;;;;;;;;;;;12.70;99.90;;;;;;5119535;27;1578;-53
2022/10/20 12:19:40;;;;;;;;;;;12.90;99.90;;;;;;5122165;27;1493;-53
2022/10/20 12:22:35;;;;;;;;;;;13.00;99.90;;;;;;5119548;27;1399;-54
2022/10/20 12:25:17;;;;;;;;;;;13.00;99.90;;;;;;5129955;27;1417;-52
2022/10/20 12:28:12;;;;;;;;;;;13.00;99.90;;;;;;5113974;27;1323;-52
2022/10/20 12:30:55;;;;;;;;;;;13.10;99.90;;;;;;5091102;27;1341;-52
2022/10/20 12:33:37;;;;;;;;;;;13.20;99.90;;;;;;5124565;27;1596;-53
2022/10/20 12:36:25;;;;;;;;;;;13.30;99.90;;;;;;5069618;27;2019;-53
2022/10/20 12:39:16;;;;;;;;;;;13.30;99.90;;;;;;5082989;27;1496;-53
2022/10/20 12:41:58;;;;;;;;;;;13.40;99.90;;;;;;5122488;27;1403;-54
2022/10/20 12:44:41;;;;;;;;;;;13.40;99.90;;;;;;5123578;27;1486;-53
2022/10/20 12:47:21;;;;;;;;;;;13.50;99.90;;;;;;5109303;27;1413;-53
2022/10/20 12:50:00;;;;;;;;;;;13.50;99.90;;;;;;5118057;27;1587;-53
2022/10/20 12:52:38;;;;;;;;;;;13.50;99.90;;;;;;5107109;27;2031;-52
2022/10/20 12:55:17;;;;;;;;;;;13.40;99.90;;;;;;5108124;27;1725;-53
2022/10/20 13:01:02;;;;;;;;;;;13.40;99.90;;;;;;5121012;27;2146;-53
2022/10/20 13:03:45;;;;;;;;;;;13.40;99.90;;;;;;5105711;27;1599;-53
2022/10/20 13:06:44;;;;;;;;;;;13.40;99.90;;;;;;5103301;27;2020;-53
2022/10/20 13:09:25;;;;;;;;;;;13.70;99.90;;;;;;5123163;27;1586;-53
2022/10/20 13:12:04;;;;;;;;;;;13.80;99.90;;;;;;5123992;27;1398;-54
2022/10/20 13:14:53;;;;;;;;;;;13.80;99.90;;;;;;5126154;27;1829;-53
2022/10/20 13:17:36;;;;;;;;;;;13.70;99.90;;;;;;5096845;27;2033;-54
2022/10/20 13:20:20;;;;;;;;;;;13.70;99.90;;;;;;5122658;27;1665;-53
2022/10/20 13:22:59;;;;;;;;;;;13.70;99.90;;;;;;5124507;27;1463;-53
2022/10/20 13:25:38;;;;;;;;;;;13.70;99.90;;;;;;5113707;27;1771;-55
2022/10/20 13:28:18;;;;;;;;;;;13.60;99.90;;;;;;5102986;27;1722;-53
2022/10/20 13:31:03;;;;;;;;;;;13.50;99.90;;;;;;5101957;27;1668;-53
2022/10/20 13:33:44;;;;;;;;;;;13.30;99.90;;;;;;5116427;27;1307;-53
2022/10/20 13:36:29;;;;;;;;;;;13.20;99.90;;;;;;5086767;27;1682;-52
2022/10/20 13:39:12;;;;;;;;;;;13.10;99.90;;;;;;5110746;27;1988;-53
2022/10/20 13:41:56;;;;;;;;;;;13.00;99.90;;;;;;5120798;27;1993;-53
2022/10/20 13:44:39;;;;;;;;;;;12.90;99.90;;;;;;5121310;27;1701;-53
2022/10/20 13:47:27;;;;;;;;;;;12.90;99.90;;;;;;5098709;27;1811;-53
2022/10/20 13:50:09;;;;;;;;;;;12.80;99.90;;;;;;5119818;27;1788;-53
2022/10/20 13:52:48;;;;;;;;;;;12.80;99.90;;;;;;5109367;27;1655;-52
2022/10/20 13:55:28;;;;;;;;;;;12.80;99.90;;;;;;5118579;27;1581;-52
2022/10/20 13:58:07;;;;;;;;;;;12.80;99.90;;;;;;5105079;27;1571;-52
2022/10/20 14:00:55;;;;;;;;;;;12.90;99.90;;;;;;5103110;27;1680;-53
2022/10/20 14:03:40;;;;;;;;;;;12.80;99.90;;;;;;5112319;27;1761;-53
2022/10/20 14:06:33;;;;;;;;;;;12.80;99.90;;;;;;5104997;27;1663;-52
2022/10/20 14:09:12;;;;;;;;;;;12.90;99.90;;;;;;5100956;27;1316;-53
2022/10/20 14:11:52;;;;;;;;;;;12.90;99.90;;;;;;5127109;27;1623;-53
2022/10/20 14:14:30;;;;;;;;;;;13.00;99.90;;;;;;5115790;27;1607;-53
2022/10/20 14:17:08;;;;;;;;;;;13.10;99.90;;;;;;5115512;27;1974;-53
2022/10/20 14:19:46;;;;;;;;;;;13.20;99.90;;;;;;5111998;27;1750;-53
2022/10/20 14:22:24;;;;;;;;;;;13.30;99.90;;;;;;5127394;27;1600;-52
2022/10/20 14:25:04;;;;;;;;;;;13.40;99.90;;;;;;5128863;27;1676;-53
2022/10/20 14:27:41;;;;;;;;;;;13.40;99.90;;;;;;5115300;27;1704;-53
2022/10/20 14:30:19;;;;;;;;;;;13.40;99.90;;;;;;5122727;27;1365;-53
2022/10/20 14:32:57;;;;;;;;;;;13.40;99.90;;;;;;5093138;27;1252;-52
2022/10/20 14:35:41;;;;;;;;;;;13.40;99.90;;;;;;5129885;27;1291;-53
2022/10/20 14:38:20;;;;;;;;;;;13.40;99.90;;;;;;5108943;27;1579;-54
2022/10/20 14:40:59;;;;;;;;;;;13.40;99.90;;;;;;5109296;27;1749;-53
2022/10/20 14:43:38;;;;;;;;;;;13.40;99.90;;;;;;5125824;27;1644;-52
2022/10/20 14:46:23;;;;;;;;;;;13.30;99.90;;;;;;5115028;27;1333;-52
2022/10/20 14:49:01;;;;;;;;;;;13.30;99.90;;;;;;5130555;27;1367;-53
2022/10/20 14:51:43;;;;;;;;;;;13.10;99.90;;;;;;5092944;27;1644;-52
2022/10/20 14:54:31;;;;;;;;;;;13.10;99.90;;;;;;5131018;27;1274;-53
2022/10/20 14:57:26;;;;;;;;;;;13.00;99.90;;;;;;5121052;27;1458;-53
2022/10/20 15:00:16;;;;;;;;;;;12.90;99.90;;;;;;5130796;27;1291;-52
2022/10/20 15:02:55;;;;;;;;;;;12.70;99.90;;;;;;5130042;27;1507;-53
2022/10/20 15:05:39;;;;;;;;;;;12.60;99.90;;;;;;5130209;27;1306;-53
2022/10/20 15:08:24;;;;;;;;;;;12.40;99.90;;;;;;5109882;27;1323;-53
2022/10/20 15:11:01;;;;;;;;;;;12.30;99.90;;;;;;5130621;27;1686;-53
2022/10/20 15:13:40;;;;;;;;;;;12.10;99.90;;;;;;5130128;27;1508;-53
2022/10/20 15:16:31;;;;;;;;;;;12.00;99.90;;;;;;5129883;27;1316;-53
2022/10/20 15:19:13;;;;;;;;;;;11.90;99.90;;;;;;5123633;27;1659;-53
2022/10/20 15:21:56;;;;;;;;;;;11.80;99.90;;;;;;5109452;27;1288;-53
2022/10/20 15:24:33;;;;;;;;;;;11.70;99.90;;;;;;5116370;27;1458;-53
2022/10/20 15:27:14;;;;;;;;;;;11.60;99.90;;;;;;5120608;27;1646;-53
2022/10/20 15:29:51;;;;;;;;;;;11.50;99.90;;;;;;5126829;27;1332;-53
2022/10/20 15:32:29;;;;;;;;;;;11.40;99.90;;;;;;5126591;27;1626;-54
2022/10/20 15:35:12;;;;;;;;;;;11.30;99.90;;;;;;5124746;27;1672;-53
2022/10/20 15:37:50;;;;;;;;;;;11.30;99.90;;;;;;5068978;27;1617;-53
2022/10/20 15:40:27;;;;;;;;;;;11.20;99.90;;;;;;5125586;27;1436;-53
2022/10/20 15:43:06;;;;;;;;;;;11.10;99.90;;;;;;5129500;27;1346;-53
2022/10/20 15:45:45;;;;;;;;;;;11.00;99.90;;;;;;5108498;27;1802;-53
2022/10/20 15:48:24;;;;;;;;;;;11.00;99.90;;;;;;5103586;27;1942;-53
2022/10/20 15:51:02;;;;;;;;;;;10.80;99.90;;;;;;5114923;27;1948;-53
2022/10/20 15:53:40;;;;;;;;;;;10.70;99.90;;;;;;5129626;27;1640;-52
2022/10/20 15:56:18;;;;;;;;;;;10.60;99.90;;;;;;5119323;27;1388;-53
2022/10/20 15:58:56;;;;;;;;;;;10.50;99.90;;;;;;5129966;27;1538;-53
2022/10/20 16:01:35;;;;;;;;;;;10.40;99.90;;;;;;5130827;27;1469;-54